sensor_id;sensor_type;location;lat;lon;timestamp;pressure;altitude;pressure_sealevel;temperature;humidity
69173;BME280;56280;49.662;8.408;2022-12-18T00:02:12;102092.78;;;-7.93;100.00
69173;BME280;56280;49.662;8.408;2022-12-18T00:04:37;102109.50;;;-7.76;100.00
69173;BME280;56280;49.662;8.408;2022-12-18T00:07:03;102092.03;;;-7.88;100.00
69173;BME280;56280;49.662;8.408;2022-12-18T00:09:28;102009.09;;;-8.49;100.00
69173;BME280;56280;49.662;8.408;2022-12-18T00:11:54;102099.75;;;-7.88;100.00
69173;BME280;56280;49.662;8.408;2022-12-18T00:14:19;102082.97;;;-8.10;100.00
69173;BME280;56280;49.662;8.408;2022-12-18T00:16:45;102100.75;;;-8.22;100.00
69173;BME280;56280;49.662;8.408;2022-12-18T00:19:10;102082.13;;;-8.50;100.00
69173;BME280;56280;49.662;8.408;2022-12-18T00:21:36;102076.31;;;-8.39;100.00
69173;BME280;56280;49.662;8.408;2022-12-18T00:24:01;102126.97;;;-8.02;100.00
69173;BME280;56280;49.662;8.408;2022-12-18T00:26:32;102096.56;;;-8.17;100.00
69173;BME280;56280;49.662;8.408;2022-12-18T00:29:04;102138.94;;;-8.06;100.00
69173;BME280;56280;49.662;8.408;2022-12-18T00:31:30;102129.09;;;-8.23;100.00
69173;BME280;56280;49.662;8.408;2022-12-18T00:33:56;102101.19;;;-8.41;100.00
69173;BME280;56280;49.662;8.408;2022-12-18T00:36:24;102103.25;;;-8.25;100.00
69173;BME280;56280;49.662;8.408;2022-12-18T00:38:50;102124.78;;;-8.23;100.00
69173;BME280;56280;49.662;8.408;2022-12-18T00:41:16;102095.53;;;-8.25;100.00
69173;BME280;56280;49.662;8.408;2022-12-18T00:44:03;102131.13;;;-8.09;100.00
69173;BME280;56280;49.662;8.408;2022-12-18T00:46:28;102138.13;;;-8.04;100.00
69173;BME280;56280;49.662;8.408;2022-12-18T00:48:53;102111.34;;;-8.10;100.00
69173;BME280;56280;49.662;8.408;2022-12-18T00:51:19;102075.56;;;-8.35;100.00
69173;BME280;56280;49.662;8.408;2022-12-18T00:53:44;102093.63;;;-8.32;100.00
69173;BME280;56280;49.662;8.408;2022-12-18T00:56:09;102131.28;;;-8.02;100.00
69173;BME280;56280;49.662;8.408;2022-12-18T00:58:34;102138.44;;;-7.89;100.00
69173;BME280;56280;49.662;8.408;2022-12-18T01:01:06;102141.28;;;-7.77;100.00
69173;BME280;56280;49.662;8.408;2022-12-18T01:03:32;102063.25;;;-8.08;100.00
69173;BME280;56280;49.662;8.408;2022-12-18T01:05:57;102121.50;;;-7.76;100.00
69173;BME280;56280;49.662;8.408;2022-12-18T01:08:23;102126.53;;;-7.82;100.00
69173;BME280;56280;49.662;8.408;2022-12-18T01:10:48;102128.44;;;-7.74;100.00
69173;BME280;56280;49.662;8.408;2022-12-18T01:13:13;102123.22;;;-7.77;100.00
69173;BME280;56280;49.662;8.408;2022-12-18T01:15:39;102007.84;;;-7.84;100.00
69173;BME280;56280;49.662;8.408;2022-12-18T01:18:05;102097.78;;;-7.57;100.00
69173;BME280;56280;49.662;8.408;2022-12-18T01:20:30;102116.53;;;-7.67;100.00
69173;BME280;56280;49.662;8.408;2022-12-18T01:22:56;102136.09;;;-7.78;100.00
69173;BME280;56280;49.662;8.408;2022-12-18T01:25:21;102121.78;;;-8.03;100.00
69173;BME280;56280;49.662;8.408;2022-12-18T01:27:46;102123.72;;;-7.95;100.00
69173;BME280;56280;49.662;8.408;2022-12-18T01:30:12;102138.28;;;-7.95;100.00
69173;BME280;56280;49.662;8.408;2022-12-18T01:32:37;102142.56;;;-7.97;100.00
69173;BME280;56280;49.662;8.408;2022-12-18T01:35:03;102133.88;;;-8.01;100.00
69173;BME280;56280;49.662;8.408;2022-12-18T01:37:28;102129.66;;;-7.56;100.00
69173;BME280;56280;49.662;8.408;2022-12-18T01:39:54;102108.69;;;-7.72;100.00
69173;BME280;56280;49.662;8.408;2022-12-18T01:42:20;102137.25;;;-8.03;100.00
69173;BME280;56280;49.662;8.408;2022-12-18T01:45:03;102115.44;;;-8.18;100.00
69173;BME280;56280;49.662;8.408;2022-12-18T01:47:33;102166.00;;;-7.86;100.00
69173;BME280;56280;49.662;8.408;2022-12-18T01:50:04;102122.84;;;-8.33;100.00
69173;BME280;56280;49.662;8.408;2022-12-18T01:52:31;102155.88;;;-8.17;100.00
69173;BME280;56280;49.662;8.408;2022-12-18T01:54:57;102168.13;;;-8.46;100.00
69173;BME280;56280;49.662;8.408;2022-12-18T01:57:24;102151.38;;;-8.64;100.00
69173;BME280;56280;49.662;8.408;2022-12-18T01:59:52;102170.16;;;-8.68;100.00
69173;BME280;56280;49.662;8.408;2022-12-18T02:02:20;102158.44;;;-8.90;100.00
69173;BME280;56280;49.662;8.408;2022-12-18T02:04:45;102133.44;;;-8.94;100.00
69173;BME280;56280;49.662;8.408;2022-12-18T02:07:30;102119.84;;;-8.88;100.00
69173;BME280;56280;49.662;8.408;2022-12-18T02:10:14;102169.03;;;-8.43;100.00
69173;BME280;56280;49.662;8.408;2022-12-18T02:12:49;102147.19;;;-8.58;100.00
69173;BME280;56280;49.662;8.408;2022-12-18T02:15:27;102074.94;;;-9.00;100.00
69173;BME280;56280;49.662;8.408;2022-12-18T02:18:02;102150.81;;;-8.87;100.00
69173;BME280;56280;49.662;8.408;2022-12-18T02:20:39;102171.53;;;-8.82;100.00
69173;BME280;56280;49.662;8.408;2022-12-18T02:25:52;102012.88;;;-9.44;100.00
69173;BME280;56280;49.662;8.408;2022-12-18T02:28:22;102148.22;;;-8.52;100.00
69173;BME280;56280;49.662;8.408;2022-12-18T02:30:50;102139.16;;;-8.72;100.00
69173;BME280;56280;49.662;8.408;2022-12-18T02:33:18;102143.22;;;-8.46;100.00
69173;BME280;56280;49.662;8.408;2022-12-18T02:35:46;102141.09;;;-8.26;100.00
69173;BME280;56280;49.662;8.408;2022-12-18T02:38:14;102134.25;;;-8.23;100.00
69173;BME280;56280;49.662;8.408;2022-12-18T02:40:42;102133.13;;;-7.97;100.00
69173;BME280;56280;49.662;8.408;2022-12-18T02:43:12;102098.78;;;-7.94;100.00
69173;BME280;56280;49.662;8.408;2022-12-18T02:45:58;102126.50;;;-7.85;100.00
69173;BME280;56280;49.662;8.408;2022-12-18T02:48:27;102088.94;;;-8.12;100.00
69173;BME280;56280;49.662;8.408;2022-12-18T02:51:02;102084.66;;;-8.10;100.00
69173;BME280;56280;49.662;8.408;2022-12-18T02:53:40;102106.22;;;-7.67;100.00
69173;BME280;56280;49.662;8.408;2022-12-18T02:56:43;102099.84;;;-6.91;100.00
69173;BME280;56280;49.662;8.408;2022-12-18T02:59:18;102091.97;;;-6.44;97.83
69173;BME280;56280;49.662;8.408;2022-12-18T03:02:06;102105.63;;;-6.54;94.90
69173;BME280;56280;49.662;8.408;2022-12-18T03:04:40;102104.81;;;-7.51;96.74
69173;BME280;56280;49.662;8.408;2022-12-18T03:07:16;102134.53;;;-8.11;100.00
69173;BME280;56280;49.662;8.408;2022-12-18T03:09:46;102100.66;;;-8.65;100.00
69173;BME280;56280;49.662;8.408;2022-12-18T03:12:18;102036.22;;;-9.03;100.00
69173;BME280;56280;49.662;8.408;2022-12-18T03:14:50;102097.75;;;-8.40;100.00
69173;BME280;56280;49.662;8.408;2022-12-18T03:17:19;102134.56;;;-7.68;100.00
69173;BME280;56280;49.662;8.408;2022-12-18T03:19:48;102125.53;;;-7.01;100.00
69173;BME280;56280;49.662;8.408;2022-12-18T03:22:15;102096.81;;;-7.63;99.04
69173;BME280;56280;49.662;8.408;2022-12-18T03:24:41;102084.81;;;-7.61;98.39
69173;BME280;56280;49.662;8.408;2022-12-18T03:27:12;102109.81;;;-8.39;100.00
69173;BME280;56280;49.662;8.408;2022-12-18T03:29:43;102074.69;;;-8.34;100.00
69173;BME280;56280;49.662;8.408;2022-12-18T03:32:23;102103.00;;;-7.98;100.00
69173;BME280;56280;49.662;8.408;2022-12-18T03:34:51;102100.75;;;-8.22;100.00
69173;BME280;56280;49.662;8.408;2022-12-18T03:37:19;102134.81;;;-7.97;100.00
69173;BME280;56280;49.662;8.408;2022-12-18T03:39:45;102094.63;;;-8.27;100.00
69173;BME280;56280;49.662;8.408;2022-12-18T03:42:15;102130.81;;;-7.83;99.58
69173;BME280;56280;49.662;8.408;2022-12-18T03:47:29;102126.28;;;-7.52;97.21
69173;BME280;56280;49.662;8.408;2022-12-18T03:50:13;102130.06;;;-8.18;96.77
69173;BME280;56280;49.662;8.408;2022-12-18T03:53:17;102134.56;;;-8.48;97.99
69173;BME280;56280;49.662;8.408;2022-12-18T03:55:47;102103.81;;;-8.40;97.36
69173;BME280;56280;49.662;8.408;2022-12-18T03:58:19;102103.47;;;-8.55;97.12
69173;BME280;56280;49.662;8.408;2022-12-18T04:00:47;102092.41;;;-8.86;97.90
69173;BME280;56280;49.662;8.408;2022-12-18T04:03:16;102099.06;;;-8.20;97.78
69173;BME280;56280;49.662;8.408;2022-12-18T04:05:43;102121.22;;;-7.47;96.24
69173;BME280;56280;49.662;8.408;2022-12-18T04:08:09;102109.97;;;-7.51;93.96
69173;BME280;56280;49.662;8.408;2022-12-18T04:10:34;102093.69;;;-7.48;92.67
69173;BME280;56280;49.662;8.408;2022-12-18T04:12:59;102110.03;;;-7.89;92.33
69173;BME280;56280;49.662;8.408;2022-12-18T04:15:25;102120.56;;;-7.37;92.58
69173;BME280;56280;49.662;8.408;2022-12-18T04:17:50;102106.19;;;-7.24;90.75
69173;BME280;56280;49.662;8.408;2022-12-18T04:20:16;102098.53;;;-7.18;90.23
69173;BME280;56280;49.662;8.408;2022-12-18T04:22:42;102103.38;;;-6.86;90.27
69173;BME280;56280;49.662;8.408;2022-12-18T04:25:08;102098.47;;;-6.71;90.07
69173;BME280;56280;49.662;8.408;2022-12-18T04:27:33;102098.59;;;-6.65;89.86
69173;BME280;56280;49.662;8.408;2022-12-18T04:29:59;102080.34;;;-6.72;89.37
69173;BME280;56280;49.662;8.408;2022-12-18T04:32:24;102088.97;;;-6.72;88.31
69173;BME280;56280;49.662;8.408;2022-12-18T04:34:50;102082.66;;;-6.89;87.25
69173;BME280;56280;49.662;8.408;2022-12-18T04:37:15;102074.19;;;-6.82;86.77
69173;BME280;56280;49.662;8.408;2022-12-18T04:39:40;102055.72;;;-7.04;87.41
69173;BME280;56280;49.662;8.408;2022-12-18T04:42:05;102081.00;;;-6.87;87.96
69173;BME280;56280;49.662;8.408;2022-12-18T04:44:31;102089.69;;;-6.82;87.20
69173;BME280;56280;49.662;8.408;2022-12-18T04:46:56;102101.06;;;-6.71;87.74
69173;BME280;56280;49.662;8.408;2022-12-18T04:49:21;102120.03;;;-6.70;86.93
69173;BME280;56280;49.662;8.408;2022-12-18T04:51:47;102093.72;;;-6.98;86.71
69173;BME280;56280;49.662;8.408;2022-12-18T04:54:12;102112.03;;;-6.83;87.11
69173;BME280;56280;49.662;8.408;2022-12-18T04:56:37;102089.19;;;-7.10;86.21
69173;BME280;56280;49.662;8.408;2022-12-18T04:59:02;102100.50;;;-7.05;85.93
69173;BME280;56280;49.662;8.408;2022-12-18T05:01:28;102082.19;;;-7.17;86.85
69173;BME280;56280;49.662;8.408;2022-12-18T05:03:53;102059.56;;;-7.30;86.90
69173;BME280;56280;49.662;8.408;2022-12-18T05:06:18;102114.34;;;-7.01;86.55
69173;BME280;56280;49.662;8.408;2022-12-18T05:08:44;102118.53;;;-7.08;84.64
69173;BME280;56280;49.662;8.408;2022-12-18T05:11:12;102127.63;;;-7.27;83.99
69173;BME280;56280;49.662;8.408;2022-12-18T05:13:42;102123.81;;;-7.90;85.37
69173;BME280;56280;49.662;8.408;2022-12-18T05:16:08;102138.19;;;-8.01;85.73
69173;BME280;56280;49.662;8.408;2022-12-18T05:18:34;102109.47;;;-8.17;86.19
69173;BME280;56280;49.662;8.408;2022-12-18T05:20:59;102133.56;;;-8.15;86.99
69173;BME280;56280;49.662;8.408;2022-12-18T05:23:25;102084.50;;;-8.18;87.16
69173;BME280;56280;49.662;8.408;2022-12-18T05:25:56;102125.09;;;-7.68;87.34
69173;BME280;56280;49.662;8.408;2022-12-18T05:28:23;102123.50;;;-7.63;87.62
69173;BME280;56280;49.662;8.408;2022-12-18T05:30:54;102123.50;;;-7.63;86.54
69173;BME280;56280;49.662;8.408;2022-12-18T05:33:21;102128.88;;;-7.52;86.13
69173;BME280;56280;49.662;8.408;2022-12-18T05:35:54;102109.00;;;-7.56;86.20
69173;BME280;56280;49.662;8.408;2022-12-18T05:38:21;102129.84;;;-7.47;86.29
69173;BME280;56280;49.662;8.408;2022-12-18T05:40:48;102133.25;;;-7.48;85.76
69173;BME280;56280;49.662;8.408;2022-12-18T05:43:15;102128.09;;;-7.48;85.62
69173;BME280;56280;49.662;8.408;2022-12-18T05:45:41;102128.13;;;-7.46;85.32
69173;BME280;56280;49.662;8.408;2022-12-18T05:48:07;102088.09;;;-7.70;85.27
69173;BME280;56280;49.662;8.408;2022-12-18T05:50:37;102109.81;;;-7.59;85.44
69173;BME280;56280;49.662;8.408;2022-12-18T05:53:04;102128.09;;;-7.48;85.67
69173;BME280;56280;49.662;8.408;2022-12-18T05:55:36;102105.34;;;-7.67;85.50
69173;BME280;56280;49.662;8.408;2022-12-18T05:58:02;102093.06;;;-7.78;85.81
69173;BME280;56280;49.662;8.408;2022-12-18T06:00:28;102084.31;;;-7.86;85.21
69173;BME280;56280;49.662;8.408;2022-12-18T06:02:54;102126.94;;;-7.62;85.25
69173;BME280;56280;49.662;8.408;2022-12-18T06:05:19;102139.06;;;-7.60;85.61
69173;BME280;56280;49.662;8.408;2022-12-18T06:07:44;102041.41;;;-8.23;85.17
69173;BME280;56280;49.662;8.408;2022-12-18T06:10:10;102142.44;;;-7.62;84.67
69173;BME280;56280;49.662;8.408;2022-12-18T06:12:36;102140.53;;;-7.71;84.47
69173;BME280;56280;49.662;8.408;2022-12-18T06:15:02;102102.03;;;-8.03;83.54
69173;BME280;56280;49.662;8.408;2022-12-18T06:17:29;102103.84;;;-7.97;83.74
69173;BME280;56280;49.662;8.408;2022-12-18T06:19:54;102133.84;;;-8.02;83.60
69173;BME280;56280;49.662;8.408;2022-12-18T06:22:20;102147.91;;;-7.88;84.96
69173;BME280;56280;49.662;8.408;2022-12-18T06:24:45;102132.31;;;-7.94;85.10
69173;BME280;56280;49.662;8.408;2022-12-18T06:27:11;102136.81;;;-7.85;85.24
69173;BME280;56280;49.662;8.408;2022-12-18T06:29:36;102128.06;;;-7.91;85.28
69173;BME280;56280;49.662;8.408;2022-12-18T06:32:03;102148.88;;;-7.83;85.05
69173;BME280;56280;49.662;8.408;2022-12-18T06:34:32;102154.13;;;-7.80;84.73
69173;BME280;56280;49.662;8.408;2022-12-18T06:36:58;102160.34;;;-7.70;84.78
69173;BME280;56280;49.662;8.408;2022-12-18T06:39:23;102141.16;;;-7.83;84.60
69173;BME280;56280;49.662;8.408;2022-12-18T06:41:49;102135.56;;;-8.03;84.49
69173;BME280;56280;49.662;8.408;2022-12-18T06:44:16;102175.66;;;-7.78;84.58
69173;BME280;56280;49.662;8.408;2022-12-18T06:46:41;102178.13;;;-7.82;84.64
69173;BME280;56280;49.662;8.408;2022-12-18T06:49:07;102173.81;;;-7.83;84.72
69173;BME280;56280;49.662;8.408;2022-12-18T06:51:34;102184.19;;;-7.82;84.42
69173;BME280;56280;49.662;8.408;2022-12-18T06:53:59;102166.75;;;-7.92;84.87
69173;BME280;56280;49.662;8.408;2022-12-18T06:56:24;102123.09;;;-8.22;84.29
69173;BME280;56280;49.662;8.408;2022-12-18T06:58:50;102143.84;;;-8.16;84.17
69173;BME280;56280;49.662;8.408;2022-12-18T07:01:15;102184.13;;;-7.85;83.96
69173;BME280;56280;49.662;8.408;2022-12-18T07:03:41;102184.97;;;-7.84;84.08
69173;BME280;56280;49.662;8.408;2022-12-18T07:06:13;102191.72;;;-7.91;83.77
69173;BME280;56280;49.662;8.408;2022-12-18T07:08:39;102193.22;;;-8.01;84.33
69173;BME280;56280;49.662;8.408;2022-12-18T07:11:04;102159.16;;;-8.24;83.51
69173;BME280;56280;49.662;8.408;2022-12-18T07:13:30;102078.25;;;-8.69;83.79
69173;BME280;56280;49.662;8.408;2022-12-18T07:15:55;102162.66;;;-8.22;84.12
69173;BME280;56280;49.662;8.408;2022-12-18T07:18:27;102189.09;;;-8.29;82.45
69173;BME280;56280;49.662;8.408;2022-12-18T07:20:52;102154.16;;;-8.56;82.76
69173;BME280;56280;49.662;8.408;2022-12-18T07:23:18;102182.97;;;-8.34;83.25
69173;BME280;56280;49.662;8.408;2022-12-18T07:25:43;102167.31;;;-8.44;83.32
69173;BME280;56280;49.662;8.408;2022-12-18T07:28:08;102204.56;;;-8.29;83.60
69173;BME280;56280;49.662;8.408;2022-12-18T07:30:37;102169.09;;;-8.39;82.86
69173;BME280;56280;49.662;8.408;2022-12-18T07:33:02;102189.22;;;-8.25;83.46
69173;BME280;56280;49.662;8.408;2022-12-18T07:35:27;102167.56;;;-8.31;83.43
69173;BME280;56280;49.662;8.408;2022-12-18T07:37:52;102144.16;;;-8.40;83.90
69173;BME280;56280;49.662;8.408;2022-12-18T07:40:18;102172.13;;;-8.19;84.51
69173;BME280;56280;49.662;8.408;2022-12-18T07:42:43;102192.22;;;-8.08;83.66
69173;BME280;56280;49.662;8.408;2022-12-18T07:45:09;102186.91;;;-8.14;83.77
69173;BME280;56280;49.662;8.408;2022-12-18T07:47:35;102157.41;;;-8.25;83.37
69173;BME280;56280;49.662;8.408;2022-12-18T07:50:02;102182.75;;;-8.07;83.79
69173;BME280;56280;49.662;8.408;2022-12-18T07:52:27;102198.44;;;-7.98;83.61
69173;BME280;56280;49.662;8.408;2022-12-18T07:54:53;102108.84;;;-8.46;84.09
69173;BME280;56280;49.662;8.408;2022-12-18T07:57:18;102164.50;;;-8.15;83.92
69173;BME280;56280;49.662;8.408;2022-12-18T07:59:44;102170.50;;;-8.17;83.74
69173;BME280;56280;49.662;8.408;2022-12-18T08:02:09;102219.03;;;-7.99;83.20
69173;BME280;56280;49.662;8.408;2022-12-18T08:04:34;102209.56;;;-8.00;83.85
69173;BME280;56280;49.662;8.408;2022-12-18T08:06:59;102200.88;;;-8.04;83.84
69173;BME280;56280;49.662;8.408;2022-12-18T08:09:25;102227.56;;;-8.02;82.99
69173;BME280;56280;49.662;8.408;2022-12-18T08:11:50;102190.91;;;-8.27;83.42
69173;BME280;56280;49.662;8.408;2022-12-18T08:14:16;102207.25;;;-8.63;82.08
69173;BME280;56280;49.662;8.408;2022-12-18T08:16:41;102200.63;;;-8.53;82.64
69173;BME280;56280;49.662;8.408;2022-12-18T08:19:06;102219.34;;;-8.23;82.92
69173;BME280;56280;49.662;8.408;2022-12-18T08:21:32;102231.97;;;-7.98;83.19
69173;BME280;56280;49.662;8.408;2022-12-18T08:23:59;102175.56;;;-8.20;82.85
69173;BME280;56280;49.662;8.408;2022-12-18T08:26:26;102230.56;;;-7.85;82.62
69173;BME280;56280;49.662;8.408;2022-12-18T08:28:54;102206.31;;;-7.92;82.83
69173;BME280;56280;49.662;8.408;2022-12-18T08:31:29;102190.75;;;-7.96;82.96
69173;BME280;56280;49.662;8.408;2022-12-18T08:33:58;102138.16;;;-8.39;81.79
69173;BME280;56280;49.662;8.408;2022-12-18T08:36:24;102122.00;;;-8.34;82.60
69173;BME280;56280;49.662;8.408;2022-12-18T08:39:02;102071.16;;;-8.39;82.63
69173;BME280;56280;49.662;8.408;2022-12-18T08:41:27;102193.63;;;-7.41;82.21
69173;BME280;56280;49.662;8.408;2022-12-18T08:43:52;102131.28;;;-7.61;81.40
69173;BME280;56280;49.662;8.408;2022-12-18T08:46:39;102067.50;;;-8.10;82.65
69173;BME280;56280;49.662;8.408;2022-12-18T08:49:09;102073.22;;;-8.23;81.66
69173;BME280;56280;49.662;8.408;2022-12-18T08:51:35;102080.91;;;-9.01;80.55
69173;BME280;56280;49.662;8.408;2022-12-18T08:54:01;102156.47;;;-8.65;81.74
69173;BME280;56280;49.662;8.408;2022-12-18T08:56:26;102059.94;;;-8.80;82.55
69173;BME280;56280;49.662;8.408;2022-12-18T08:58:53;102118.84;;;-8.20;82.40
69173;BME280;56280;49.662;8.408;2022-12-18T09:01:19;102055.13;;;-8.25;82.40
69173;BME280;56280;49.662;8.408;2022-12-18T09:03:48;102136.41;;;-7.63;82.17
69173;BME280;56280;49.662;8.408;2022-12-18T09:06:15;102159.13;;;-7.46;82.58
69173;BME280;56280;49.662;8.408;2022-12-18T09:08:41;102169.66;;;-7.34;83.49
69173;BME280;56280;49.662;8.408;2022-12-18T09:11:12;102151.56;;;-7.37;83.24
69173;BME280;56280;49.662;8.408;2022-12-18T09:13:38;102140.91;;;-7.53;82.83
69173;BME280;56280;49.662;8.408;2022-12-18T09:16:03;102146.19;;;-7.48;82.84
69173;BME280;56280;49.662;8.408;2022-12-18T09:18:31;102147.16;;;-7.82;83.60
69173;BME280;56280;49.662;8.408;2022-12-18T09:20:56;102163.78;;;-7.70;84.52
69173;BME280;56280;49.662;8.408;2022-12-18T09:23:22;102106.13;;;-8.13;84.21
69173;BME280;56280;49.662;8.408;2022-12-18T09:25:50;102155.00;;;-7.78;85.50
69173;BME280;56280;49.662;8.408;2022-12-18T09:28:18;102078.88;;;-8.39;86.44
69173;BME280;56280;49.662;8.408;2022-12-18T09:30:48;102135.72;;;-7.95;87.30
69173;BME280;56280;49.662;8.408;2022-12-18T09:33:19;102036.94;;;-9.42;90.08
69173;BME280;56280;49.662;8.408;2022-12-18T09:35:45;101987.38;;;-9.35;91.19
69173;BME280;56280;49.662;8.408;2022-12-18T09:38:17;102057.81;;;-8.98;90.14
69173;BME280;56280;49.662;8.408;2022-12-18T09:40:56;102206.16;;;-8.34;90.53
69173;BME280;56280;49.662;8.408;2022-12-18T09:43:40;102057.94;;;-9.26;91.58
69173;BME280;56280;49.662;8.408;2022-12-18T09:46:16;102024.66;;;-8.84;90.22
69173;BME280;56280;49.662;8.408;2022-12-18T09:48:49;102060.63;;;-8.09;88.78
69173;BME280;56280;49.662;8.408;2022-12-18T09:51:25;102093.34;;;-7.65;87.56
69173;BME280;56280;49.662;8.408;2022-12-18T09:54:07;102058.56;;;-8.65;87.96
69173;BME280;56280;49.662;8.408;2022-12-18T09:56:40;102065.09;;;-8.80;89.39
69173;BME280;56280;49.662;8.408;2022-12-18T09:59:21;102135.47;;;-7.66;89.90
69173;BME280;56280;49.662;8.408;2022-12-18T10:01:48;102166.03;;;-7.44;88.25
69173;BME280;56280;49.662;8.408;2022-12-18T10:04:13;102221.19;;;-6.50;88.68
69173;BME280;56280;49.662;8.408;2022-12-18T10:06:50;102204.88;;;-6.95;87.03
69173;BME280;56280;49.662;8.408;2022-12-18T10:09:28;102212.09;;;-7.21;88.02
69173;BME280;56280;49.662;8.408;2022-12-18T10:12:15;102203.28;;;-6.88;89.03
69173;BME280;56280;49.662;8.408;2022-12-18T10:17:45;102213.22;;;-6.09;87.12
69173;BME280;56280;49.662;8.408;2022-12-18T10:20:16;102220.47;;;-6.90;87.15
69173;BME280;56280;49.662;8.408;2022-12-18T10:23:08;102216.69;;;-7.08;89.07
69173;BME280;56280;49.662;8.408;2022-12-18T10:26:03;102214.06;;;-7.09;89.56
69173;BME280;56280;49.662;8.408;2022-12-18T10:28:31;102162.94;;;-6.80;89.97
69173;BME280;56280;49.662;8.408;2022-12-18T10:30:56;102196.91;;;-6.07;89.09
69173;BME280;56280;49.662;8.408;2022-12-18T10:33:23;102145.88;;;-7.19;88.28
69173;BME280;56280;49.662;8.408;2022-12-18T10:35:50;102175.78;;;-7.30;90.18
69173;BME280;56280;49.662;8.408;2022-12-18T10:40:54;102186.88;;;-7.35;92.27
69173;BME280;56280;49.662;8.408;2022-12-18T10:43:38;102161.03;;;-6.90;92.36
69173;BME280;56280;49.662;8.408;2022-12-18T10:51:29;102138.19;;;-6.66;89.42
69173;BME280;56280;49.662;8.408;2022-12-18T10:54:18;102200.94;;;-6.73;89.75
69173;BME280;56280;49.662;8.408;2022-12-18T10:56:46;102160.09;;;-7.81;92.91
69173;BME280;56280;49.662;8.408;2022-12-18T10:59:14;102151.25;;;-7.92;94.73
69173;BME280;56280;49.662;8.408;2022-12-18T11:01:53;102188.13;;;-7.16;94.25
69173;BME280;56280;49.662;8.408;2022-12-18T11:04:30;102211.00;;;-7.33;93.62
69173;BME280;56280;49.662;8.408;2022-12-18T11:06:58;102201.75;;;-6.77;94.29
69173;BME280;56280;49.662;8.408;2022-12-18T11:09:31;102172.09;;;-6.98;93.09
69173;BME280;56280;49.662;8.408;2022-12-18T11:12:02;102139.50;;;-7.37;91.91
69173;BME280;56280;49.662;8.408;2022-12-18T11:14:52;102174.16;;;-7.66;93.76
69173;BME280;56280;49.662;8.408;2022-12-18T11:17:31;102201.28;;;-7.03;94.89
69173;BME280;56280;49.662;8.408;2022-12-18T11:20:04;102191.41;;;-6.77;93.79
69173;BME280;56280;49.662;8.408;2022-12-18T11:22:33;102143.53;;;-6.56;92.44
69173;BME280;56280;49.662;8.408;2022-12-18T11:27:38;102191.78;;;-6.55;90.53
69173;BME280;56280;49.662;8.408;2022-12-18T11:30:31;102189.41;;;-6.93;91.05
69173;BME280;56280;49.662;8.408;2022-12-18T11:36:01;102187.06;;;-6.80;92.74
69173;BME280;56280;49.662;8.408;2022-12-18T11:38:40;102151.72;;;-6.82;91.59
69173;BME280;56280;49.662;8.408;2022-12-18T11:41:21;102184.03;;;-5.99;91.17
69173;BME280;56280;49.662;8.408;2022-12-18T11:44:13;102174.94;;;-5.71;88.29
69173;BME280;56280;49.662;8.408;2022-12-18T11:46:47;102164.56;;;-5.71;88.41
69173;BME280;56280;49.662;8.408;2022-12-18T11:49:28;102149.53;;;-5.29;88.83
69173;BME280;56280;49.662;8.408;2022-12-18T11:52:18;102131.53;;;-5.90;87.30
69173;BME280;56280;49.662;8.408;2022-12-18T11:54:55;102056.72;;;-6.40;88.02
69173;BME280;56280;49.662;8.408;2022-12-18T11:57:39;102172.03;;;-5.94;89.88
69173;BME280;56280;49.662;8.408;2022-12-18T12:00:18;102176.50;;;-6.42;92.18
69173;BME280;56280;49.662;8.408;2022-12-18T12:14:18;102165.53;;;-6.79;96.57
69173;BME280;56280;49.662;8.408;2022-12-18T12:30:11;102148.66;;;-6.58;98.23
69173;BME280;56280;49.662;8.408;2022-12-18T12:38:00;102135.66;;;-6.63;98.58
69173;BME280;56280;49.662;8.408;2022-12-18T12:40:32;102093.94;;;-6.86;99.11
69173;BME280;56280;49.662;8.408;2022-12-18T12:43:03;102123.78;;;-6.51;98.52
69173;BME280;56280;49.662;8.408;2022-12-18T12:45:59;102110.09;;;-6.43;98.55
69173;BME280;56280;49.662;8.408;2022-12-18T12:48:56;102125.31;;;-6.06;96.80
69173;BME280;56280;49.662;8.408;2022-12-18T12:51:38;102120.16;;;-6.05;96.25
69173;BME280;56280;49.662;8.408;2022-12-18T12:54:16;102104.75;;;-5.94;95.68
69173;BME280;56280;49.662;8.408;2022-12-18T13:02:24;102112.03;;;-5.63;93.66
69173;BME280;56280;49.662;8.408;2022-12-18T13:07:39;102027.75;;;-6.12;94.27
69173;BME280;56280;49.662;8.408;2022-12-18T13:13:19;101953.25;;;-6.42;94.12
69173;BME280;56280;49.662;8.408;2022-12-18T13:16:03;102088.09;;;-5.42;93.33
69173;BME280;56280;49.662;8.408;2022-12-18T13:18:30;102061.81;;;-5.73;93.12
69173;BME280;56280;49.662;8.408;2022-12-18T13:21:12;101962.72;;;-6.41;93.78
69173;BME280;56280;49.662;8.408;2022-12-18T13:23:41;101959.53;;;-6.18;93.97
69173;BME280;56280;49.662;8.408;2022-12-18T13:31:10;102062.34;;;-6.07;95.72
69173;BME280;56280;49.662;8.408;2022-12-18T13:33:38;102007.63;;;-6.37;96.74
69173;BME280;56280;49.662;8.408;2022-12-18T13:41:49;102083.19;;;-5.91;96.44
69173;BME280;56280;49.662;8.408;2022-12-18T13:44:37;102043.38;;;-6.04;96.34
69173;BME280;56280;49.662;8.408;2022-12-18T13:47:32;101985.97;;;-5.66;95.94
69173;BME280;56280;49.662;8.408;2022-12-18T13:49:59;101942.91;;;-5.58;93.34
69173;BME280;56280;49.662;8.408;2022-12-18T13:52:29;102012.47;;;-5.00;91.90
69173;BME280;56280;49.662;8.408;2022-12-18T13:55:06;101866.66;;;-5.94;90.80
69173;BME280;56280;49.662;8.408;2022-12-18T13:57:35;101971.84;;;-5.01;90.97
69173;BME280;56280;49.662;8.408;2022-12-18T14:02:51;101861.47;;;-5.97;90.66
69173;BME280;56280;49.662;8.408;2022-12-18T14:05:25;102022.50;;;-5.37;90.59
69173;BME280;56280;49.662;8.408;2022-12-18T14:07:52;101947.03;;;-5.75;91.81
69173;BME280;56280;49.662;8.408;2022-12-18T14:10:19;101928.25;;;-5.54;91.37
69173;BME280;56280;49.662;8.408;2022-12-18T14:12:48;101987.31;;;-5.13;90.63
69173;BME280;56280;49.662;8.408;2022-12-18T14:15:35;102042.63;;;-5.09;90.28
69173;BME280;56280;49.662;8.408;2022-12-18T14:18:22;101946.00;;;-5.93;90.86
69173;BME280;56280;49.662;8.408;2022-12-18T14:20:53;101997.09;;;-5.73;92.02